Time;durP1;ratioP1;P1;durP2;ratioP2;P2;SDS_P1;SDS_P2;PMS_P1;PMS_P2;Temp;Humidity;BMP_temperature;BMP_pressure;BME280_temperature;BME280_humidity;BME280_pressure;Samples;Min_cycle;Max_cycle;Signal;HPM_P1;HPM_P2
2023/09/01 00:00:04;;;;;;;2.67;1.60;;;10.60;99.90;;;;;;5156703;27;20046;-70
2023/09/01 00:02:30;;;;;;;2.45;1.50;;;10.50;99.90;;;;;;5156464;27;20498;-71
2023/09/01 00:04:56;;;;;;;3.72;1.63;;;10.50;99.90;;;;;;5156444;27;20045;-71
2023/09/01 00:07:21;;;;;;;4.72;2.00;;;10.60;99.90;;;;;;5156352;27;20088;-71
2023/09/01 00:09:52;;;;;;;3.47;1.88;;;10.60;99.90;;;;;;5156382;27;20082;-71
2023/09/01 00:12:17;;;;;;;3.30;1.60;;;10.60;99.90;;;;;;5156243;27;20046;-70
2023/09/01 00:14:43;;;;;;;2.78;1.95;;;10.60;99.90;;;;;;5155935;27;20047;-70
2023/09/01 00:17:09;;;;;;;4.18;2.22;;;10.60;99.90;;;;;;5155741;27;20547;-71
2023/09/01 00:19:35;;;;;;;4.82;2.15;;;10.60;99.90;;;;;;5156257;27;20039;-71
2023/09/01 00:22:02;;;;;;;3.00;1.65;;;10.70;99.90;;;;;;5156225;27;20045;-71
2023/09/01 00:24:31;;;;;;;3.35;1.65;;;10.70;99.90;;;;;;5156284;27;20046;-70
2023/09/01 00:26:58;;;;;;;3.85;1.80;;;10.60;99.90;;;;;;5156001;27;20121;-70
2023/09/01 00:29:23;;;;;;;3.40;2.10;;;10.60;99.90;;;;;;5156084;27;20038;-71
2023/09/01 00:31:49;;;;;;;3.70;1.65;;;10.50;99.90;;;;;;5137433;27;20051;-70
2023/09/01 00:34:15;;;;;;;2.88;1.80;;;10.50;99.90;;;;;;5135251;27;20484;-70
2023/09/01 00:36:41;;;;;;;3.00;1.83;;;10.50;99.90;;;;;;5134861;27;20552;-70
2023/09/01 00:39:08;;;;;;;3.85;1.90;;;10.50;99.90;;;;;;5134480;27;20051;-71
2023/09/01 00:41:34;;;;;;;3.67;2.03;;;10.50;99.90;;;;;;5117048;27;20062;-71
2023/09/01 00:44:00;;;;;;;4.22;2.65;;;10.60;99.90;;;;;;5140865;27;20046;-71
2023/09/01 00:46:26;;;;;;;5.82;4.20;;;10.60;99.90;;;;;;5154924;27;20054;-71
2023/09/01 00:48:55;;;;;;;5.57;3.20;;;10.60;99.90;;;;;;5155736;27;20050;-70
2023/09/01 00:51:21;;;;;;;5.35;2.70;;;10.60;99.90;;;;;;5155414;27;20038;-71
2023/09/01 00:53:47;;;;;;;3.58;1.95;;;10.50;99.90;;;;;;5155621;27;20057;-70
2023/09/01 00:56:13;;;;;;;3.15;1.83;;;10.50;99.90;;;;;;5155384;27;20085;-71
2023/09/01 00:58:39;;;;;;;3.47;1.90;;;10.40;99.90;;;;;;5155461;27;20042;-70
2023/09/01 01:01:04;;;;;;;3.10;1.80;;;10.40;99.90;;;;;;5155218;27;20111;-71
2023/09/01 01:03:33;;;;;;;3.03;1.88;;;10.40;99.90;;;;;;5155448;27;20050;-71
2023/09/01 01:06:09;;;;;;;4.65;2.30;;;10.40;99.90;;;;;;5137192;27;20038;-71
2023/09/01 01:08:53;;;;;;;3.63;1.90;;;10.40;99.90;;;;;;5155329;27;20089;-71
2023/09/01 01:11:35;;;;;;;2.92;1.88;;;10.50;99.90;;;;;;5155079;27;20553;-71
2023/09/01 01:14:06;;;;;;;2.92;2.20;;;10.50;99.90;;;;;;5137384;27;20053;-70
2023/09/01 01:16:32;;;;;;;4.00;2.25;;;10.50;99.90;;;;;;5155121;27;20125;-70
2023/09/01 01:19:04;;;;;;;3.45;2.05;;;10.50;99.90;;;;;;5137316;27;20058;-70
2023/09/01 01:21:33;;;;;;;3.67;2.10;;;10.60;99.90;;;;;;5155329;27;20103;-70
2023/09/01 01:23:59;;;;;;;4.63;2.08;;;10.60;99.90;;;;;;5155219;27;20038;-70
2023/09/01 01:26:26;;;;;;;8.48;2.25;;;10.60;99.90;;;;;;5137386;27;20058;-71
2023/09/01 01:28:52;;;;;;;3.42;1.70;;;10.70;99.90;;;;;;5154682;27;20398;-71
2023/09/01 01:31:18;;;;;;;5.18;2.00;;;10.70;99.90;;;;;;5154637;27;20043;-71
2023/09/01 01:33:55;;;;;;;5.10;1.92;;;10.70;99.90;;;;;;5155132;27;20050;-71
2023/09/01 01:36:27;;;;;;;3.08;1.90;;;10.80;99.90;;;;;;5155328;27;20057;-70
2023/09/01 01:39:04;;;;;;;3.58;2.20;;;10.80;99.90;;;;;;5140472;27;20051;-71
2023/09/01 01:41:44;;;;;;;4.63;1.80;;;10.80;99.90;;;;;;5134429;28;20079;-71
2023/09/01 01:44:14;;;;;;;3.13;1.80;;;10.80;99.90;;;;;;5141583;27;20447;-70
2023/09/01 01:46:40;;;;;;;3.33;1.90;;;10.70;99.90;;;;;;5154832;27;20058;-70
2023/09/01 01:49:09;;;;;;;3.65;1.58;;;10.70;99.90;;;;;;5154637;27;20051;-70
2023/09/01 01:51:36;;;;;;;3.28;1.73;;;10.60;99.90;;;;;;5153591;27;20043;-70
2023/09/01 01:54:02;;;;;;;3.70;2.38;;;10.60;99.90;;;;;;5154700;27;20395;-70
2023/09/01 01:56:28;;;;;;;9.48;2.42;;;10.50;99.90;;;;;;5154782;27;20368;-70
2023/09/01 01:58:54;;;;;;;3.50;1.90;;;10.50;99.90;;;;;;5155043;27;20054;-69
2023/09/01 02:01:19;;;;;;;2.75;1.60;;;10.50;99.90;;;;;;5155317;27;20479;-70
2023/09/01 02:03:45;;;;;;;2.83;1.70;;;10.40;99.90;;;;;;5154900;27;20051;-70
2023/09/01 02:06:11;;;;;;;3.70;1.88;;;10.40;99.90;;;;;;5154702;27;20121;-70
2023/09/01 02:08:37;;;;;;;4.20;2.08;;;10.40;99.90;;;;;;5154317;27;20047;-71
2023/09/01 02:11:04;;;;;;;3.08;1.85;;;10.40;99.90;;;;;;5154231;27;20390;-71
2023/09/01 02:13:30;;;;;;;4.88;2.33;;;10.40;99.90;;;;;;5154150;27;20567;-71
2023/09/01 02:15:56;;;;;;;3.97;2.63;;;10.50;99.90;;;;;;5154206;27;20050;-71
2023/09/01 02:18:22;;;;;;;5.13;3.20;;;10.50;99.90;;;;;;5155021;27;20110;-71
2023/09/01 02:20:47;;;;;;;6.22;3.90;;;10.60;99.90;;;;;;5156514;27;20038;-70
2023/09/01 02:23:17;;;;;;;5.55;3.70;;;10.70;99.90;;;;;;5158516;27;20047;-71
2023/09/01 02:25:45;;;;;;;5.60;3.85;;;10.70;99.90;;;;;;5158582;27;20046;-70
2023/09/01 02:28:12;;;;;;;6.75;4.38;;;10.70;99.90;;;;;;5158688;27;20050;-70
2023/09/01 02:30:38;;;;;;;9.30;5.90;;;10.80;99.90;;;;;;5158121;27;20558;-70
2023/09/01 02:33:04;;;;;;;10.15;6.55;;;10.90;99.90;;;;;;5158877;27;20054;-70
2023/09/01 02:35:30;;;;;;;7.03;3.90;;;10.80;99.90;;;;;;5158288;27;20043;-71
2023/09/01 02:37:56;;;;;;;6.15;3.50;;;10.90;99.90;;;;;;5158380;27;20037;-70
2023/09/01 02:40:24;;;;;;;5.18;3.90;;;10.90;99.90;;;;;;5158266;27;20042;-70
2023/09/01 02:42:53;;;;;;;6.18;4.20;;;10.90;99.90;;;;;;5158092;27;20039;-71
2023/09/01 02:45:19;;;;;;;8.55;5.32;;;11.00;99.90;;;;;;5157609;27;20066;-71
2023/09/01 02:47:44;;;;;;;7.25;5.07;;;11.00;99.90;;;;;;5138751;27;20047;-71
2023/09/01 02:50:10;;;;;;;8.85;6.28;;;11.00;99.90;;;;;;5157672;27;20043;-71
2023/09/01 02:52:36;;;;;;;7.25;4.88;;;11.00;99.90;;;;;;5157868;27;20453;-71
2023/09/01 02:55:03;;;;;;;8.65;5.68;;;11.00;99.90;;;;;;5158148;27;20475;-71
2023/09/01 02:57:31;;;;;;;7.85;5.40;;;11.00;99.90;;;;;;5158024;27;20111;-71
2023/09/01 02:59:57;;;;;;;9.88;6.68;;;11.00;99.90;;;;;;5158281;27;20428;-71
2023/09/01 03:02:22;;;;;;;9.40;6.55;;;11.00;99.90;;;;;;5158236;27;20039;-71
2023/09/01 03:04:49;;;;;;;9.20;6.47;;;11.00;99.90;;;;;;5157525;27;20047;-71
2023/09/01 03:07:15;;;;;;;8.90;5.95;;;11.00;99.90;;;;;;5157938;27;20054;-70
2023/09/01 03:09:40;;;;;;;10.68;7.53;;;11.10;99.90;;;;;;5157444;27;20521;-71
2023/09/01 03:12:06;;;;;;;9.25;6.55;;;11.10;99.90;;;;;;5157115;27;20051;-71
2023/09/01 03:14:32;;;;;;;9.98;5.40;;;11.10;99.90;;;;;;5157542;27;20043;-71
2023/09/01 03:16:58;;;;;;;8.00;6.03;;;11.10;99.90;;;;;;5156862;27;20475;-71
2023/09/01 03:19:23;;;;;;;7.88;5.75;;;11.10;99.90;;;;;;5157694;27;20487;-71
2023/09/01 03:21:49;;;;;;;10.00;7.00;;;11.10;99.90;;;;;;5157759;27;20122;-71
2023/09/01 03:24:15;;;;;;;7.82;6.10;;;11.10;99.90;;;;;;5156716;27;20050;-71
2023/09/01 03:26:40;;;;;;;8.13;6.50;;;11.10;99.90;;;;;;5157018;27;20130;-71
2023/09/01 03:29:06;;;;;;;9.52;6.85;;;11.10;99.90;;;;;;5157477;27;20498;-71
2023/09/01 03:31:32;;;;;;;10.75;7.20;;;11.10;99.90;;;;;;5156687;27;20046;-71
2023/09/01 03:33:59;;;;;;;10.30;6.78;;;11.10;99.90;;;;;;5157514;27;20125;-71
2023/09/01 03:36:25;;;;;;;11.13;7.85;;;11.10;99.90;;;;;;5157300;27;20522;-71
2023/09/01 03:38:53;;;;;;;12.27;8.35;;;11.10;99.90;;;;;;5142701;27;20049;-71
2023/09/01 03:41:19;;;;;;;11.30;7.47;;;11.00;99.90;;;;;;5136515;27;20091;-71
2023/09/01 03:43:44;;;;;;;8.60;6.82;;;11.10;99.90;;;;;;5140047;27;20054;-71
2023/09/01 03:46:10;;;;;;;11.35;7.35;;;11.10;99.90;;;;;;5156800;27;20062;-71
2023/09/01 03:48:36;;;;;;;9.73;6.65;;;11.00;99.90;;;;;;5156874;27;20054;-70
2023/09/01 03:51:10;;;;;;;9.27;6.70;;;11.10;99.90;;;;;;5138410;27;20069;-71
2023/09/01 03:53:37;;;;;;;8.90;6.90;;;11.00;99.90;;;;;;5156734;27;20127;-71
2023/09/01 03:56:13;;;;;;;8.60;6.13;;;11.00;99.90;;;;;;5138456;27;20138;-70
2023/09/01 03:58:40;;;;;;;8.10;6.47;;;11.00;99.90;;;;;;5156793;27;20049;-71
2023/09/01 04:01:08;;;;;;;9.73;6.82;;;10.90;99.90;;;;;;5138047;27;20046;-71
2023/09/01 04:03:44;;;;;;;9.18;6.22;;;10.90;99.90;;;;;;5137932;27;20133;-71
2023/09/01 04:06:10;;;;;;;;;;;10.90;99.90;;;;;;5157211;27;20053;-71
2023/09/01 04:08:37;;;;;;;8.97;6.63;;;10.80;99.90;;;;;;5156669;27;19919;-70
2023/09/01 04:11:03;;;;;;;8.02;6.05;;;10.80;99.90;;;;;;5156528;27;20043;-70
2023/09/01 04:13:33;;;;;;;8.88;5.97;;;10.80;99.90;;;;;;5156277;27;20470;-70
2023/09/01 04:15:59;;;;;;;8.30;6.00;;;10.70;99.90;;;;;;5137522;27;20046;-71
2023/09/01 04:18:25;;;;;;;9.52;5.53;;;10.70;99.90;;;;;;5156313;27;20038;-71
2023/09/01 04:20:52;;;;;;;9.63;6.15;;;10.70;99.90;;;;;;5156362;27;20066;-70
2023/09/01 04:23:18;;;;;;;9.48;5.30;;;10.70;99.90;;;;;;5137800;27;20474;-70
2023/09/01 04:25:47;;;;;;;8.32;6.10;;;10.60;99.90;;;;;;5137616;27;20090;-71
2023/09/01 04:28:13;;;;;;;9.10;6.53;;;10.60;99.90;;;;;;5156159;27;20130;-71
2023/09/01 04:30:39;;;;;;;7.70;6.05;;;10.60;99.90;;;;;;5156298;27;20038;-71
2023/09/01 04:33:06;;;;;;;8.38;6.30;;;10.60;99.90;;;;;;5155942;27;20538;-70
2023/09/01 04:35:33;;;;;;;8.75;6.20;;;10.60;99.90;;;;;;5137801;27;20047;-71
2023/09/01 04:37:59;;;;;;;10.02;6.20;;;10.60;99.90;;;;;;5149042;27;20446;-71
2023/09/01 04:40:28;;;;;;;10.05;6.35;;;10.60;99.90;;;;;;5134377;27;20424;-71
2023/09/01 04:42:54;;;;;;;7.53;5.68;;;10.60;99.90;;;;;;5115361;27;20110;-71
2023/09/01 04:45:20;;;;;;;9.35;6.07;;;10.60;99.90;;;;;;5133360;27;20175;-70
2023/09/01 04:47:45;;;;;;;8.80;6.30;;;10.50;99.90;;;;;;5154881;27;20057;-71
2023/09/01 04:50:11;;;;;;;9.50;6.53;;;10.50;99.90;;;;;;5155534;27;20046;-71
2023/09/01 04:52:37;;;;;;;8.18;5.50;;;10.50;99.90;;;;;;5137316;27;20052;-71
2023/09/01 04:55:04;;;;;;;11.23;6.45;;;10.50;99.90;;;;;;5155524;27;20045;-71
2023/09/01 04:57:30;;;;;;;7.32;4.95;;;10.40;99.90;;;;;;5155609;27;20549;-71
2023/09/01 04:59:57;;;;;;;4.97;4.00;;;10.40;99.90;;;;;;5155494;27;20047;-70
2023/09/01 05:02:22;;;;;;;5.63;3.63;;;10.40;99.90;;;;;;5155524;27;20095;-71
2023/09/01 05:04:48;;;;;;;5.38;3.90;;;10.40;99.90;;;;;;5154979;27;20039;-70
2023/09/01 05:07:14;;;;;;;5.47;3.50;;;10.40;99.90;;;;;;5155370;27;20050;-70
2023/09/01 05:09:40;;;;;;;6.45;4.32;;;10.40;99.90;;;;;;5155054;27;20039;-71
2023/09/01 05:12:05;;;;;;;7.10;3.65;;;10.30;99.90;;;;;;5155374;27;20042;-71
2023/09/01 05:14:31;;;;;;;6.88;4.45;;;10.30;99.90;;;;;;5137364;27;20043;-71
2023/09/01 05:16:57;;;;;;;7.47;5.22;;;10.40;99.90;;;;;;5145053;27;20096;-71
2023/09/01 05:19:22;;;;;;;7.05;4.50;;;10.40;99.90;;;;;;5134102;27;20396;-71
2023/09/01 05:21:48;;;;;;;5.50;3.83;;;10.40;99.90;;;;;;5134372;27;20081;-71
2023/09/01 05:24:14;;;;;;;5.28;3.67;;;10.40;99.90;;;;;;5134244;27;20043;-71
2023/09/01 05:26:40;;;;;;;7.40;4.80;;;10.50;99.90;;;;;;5134529;27;20043;-71
2023/09/01 05:29:06;;;;;;;5.95;3.58;;;10.60;99.90;;;;;;5134655;27;20043;-71
2023/09/01 05:31:32;;;;;;;5.25;3.45;;;10.60;99.90;;;;;;5133888;28;20039;-70
2023/09/01 05:33:57;;;;;;;5.40;3.42;;;10.60;99.90;;;;;;5134641;28;20046;-71
2023/09/01 05:36:23;;;;;;;8.00;3.90;;;10.70;99.90;;;;;;5134244;28;20074;-71
2023/09/01 05:38:49;;;;;;;5.05;3.38;;;10.70;99.90;;;;;;5116108;28;20039;-71
2023/09/01 05:41:14;;;;;;;6.18;3.83;;;10.80;99.90;;;;;;5134000;28;20035;-71
2023/09/01 05:43:40;;;;;;;5.15;3.70;;;10.90;99.90;;;;;;5137164;27;20035;-71
2023/09/01 05:46:06;;;;;;;5.78;3.78;;;10.90;99.90;;;;;;5154304;27;20439;-70
2023/09/01 05:48:32;;;;;;;7.68;3.97;;;11.00;99.90;;;;;;5155023;27;20103;-70
2023/09/01 05:50:57;;;;;;;5.25;3.67;;;11.00;99.90;;;;;;5155154;27;20039;-71
2023/09/01 05:53:23;;;;;;;5.18;3.67;;;11.10;99.90;;;;;;5154549;27;19919;-70
2023/09/01 05:55:49;;;;;;;5.32;3.50;;;11.10;99.90;;;;;;5157908;27;20046;-71
2023/09/01 05:58:14;;;;;;;5.28;3.70;;;11.20;99.90;;;;;;5158927;27;20426;-71
2023/09/01 06:00:40;;;;;;;7.40;3.90;;;11.20;99.90;;;;;;5159032;27;20078;-70
2023/09/01 06:03:06;;;;;;;5.55;3.53;;;11.30;99.90;;;;;;5158979;27;20046;-70
2023/09/01 06:05:32;;;;;;;5.53;3.38;;;11.40;99.90;;;;;;5140638;27;20388;-70
2023/09/01 06:07:58;;;;;;;4.95;3.50;;;11.40;99.90;;;;;;5158955;27;20039;-71
2023/09/01 06:10:23;;;;;;;6.05;3.55;;;11.50;99.90;;;;;;5158521;27;20127;-71
2023/09/01 06:12:49;;;;;;;5.90;3.88;;;11.60;99.90;;;;;;5158916;27;20164;-71
2023/09/01 06:15:15;;;;;;;4.75;3.50;;;11.60;99.90;;;;;;5158792;27;20475;-70
2023/09/01 06:17:40;;;;;;;5.70;3.30;;;11.60;99.90;;;;;;5158087;27;20051;-66
2023/09/01 06:20:07;;;;;;;5.88;3.70;;;11.60;99.90;;;;;;5158561;27;20405;-66
2023/09/01 06:22:33;;;;;;;6.03;3.65;;;11.70;99.90;;;;;;5158708;27;20038;-65
2023/09/01 06:24:59;;;;;;;5.40;3.90;;;11.70;99.90;;;;;;5140228;27;20082;-66
2023/09/01 06:27:24;;;;;;;4.72;3.38;;;11.80;99.90;;;;;;5158417;27;20070;-66
2023/09/01 06:29:50;;;;;;;5.78;4.00;;;11.80;99.90;;;;;;5158871;27;20042;-66
2023/09/01 06:32:16;;;;;;;8.02;4.60;;;11.90;99.90;;;;;;5158244;27;20443;-66
2023/09/01 06:34:42;;;;;;;6.07;4.53;;;12.00;99.90;;;;;;5158059;27;20483;-66
2023/09/01 06:37:08;;;;;;;8.98;4.28;;;12.10;99.90;;;;;;5158210;27;20103;-66
2023/09/01 06:39:34;;;;;;;7.00;4.53;;;12.30;99.90;;;;;;5137521;27;20055;-66
2023/09/01 06:41:59;;;;;;;8.25;5.10;;;12.50;99.90;;;;;;5137197;27;20131;-66
2023/09/01 06:44:25;;;;;;;8.18;5.65;;;12.60;99.90;;;;;;5146793;27;20043;-67
2023/09/01 06:46:51;;;;;;;7.82;5.05;;;12.60;99.90;;;;;;5157884;27;20047;-67
2023/09/01 06:49:17;;;;;;;8.70;5.35;;;12.70;99.90;;;;;;5157898;27;20091;-66
2023/09/01 06:51:42;;;;;;;7.30;5.32;;;12.80;99.90;;;;;;5157735;27;20082;-66
2023/09/01 06:54:08;;;;;;;8.00;6.22;;;12.90;99.90;;;;;;5158074;27;20436;-66
2023/09/01 06:56:34;;;;;;;9.52;6.07;;;13.00;99.90;;;;;;5158090;27;20042;-66
2023/09/01 06:59:00;;;;;;;9.57;6.47;;;13.10;99.90;;;;;;5157840;27;20043;-66
2023/09/01 07:01:28;;;;;;;11.63;7.20;;;13.20;99.90;;;;;;5157533;27;20050;-66
2023/09/01 07:03:54;;;;;;;10.93;7.70;;;13.30;99.90;;;;;;5157803;27;20049;-67
2023/09/01 07:06:20;;;;;;;11.13;7.50;;;13.40;99.90;;;;;;5157274;27;20117;-66
2023/09/01 07:08:46;;;;;;;11.15;7.72;;;13.50;99.90;;;;;;5139568;27;20438;-66
2023/09/01 07:11:14;;;;;;;9.98;7.10;;;13.60;99.90;;;;;;5157103;27;20491;-66
2023/09/01 07:13:40;;;;;;;12.55;8.73;;;13.70;99.90;;;;;;5157390;27;20043;-66
2023/09/01 07:16:06;;;;;;;13.82;9.20;;;13.80;99.90;;;;;;5154665;27;20050;-67
2023/09/01 07:18:33;;;;;;;14.98;9.07;;;13.90;99.90;;;;;;5151112;27;20047;-68
2023/09/01 07:20:59;;;;;;;12.50;9.15;;;14.00;99.90;;;;;;5146570;27;20081;-66
2023/09/01 07:23:26;;;;;;;11.88;8.85;;;14.10;99.90;;;;;;5149584;27;20039;-65
2023/09/01 07:25:53;;;;;;;13.32;8.57;;;14.20;99.90;;;;;;5134566;27;20139;-66
2023/09/01 07:28:19;;;;;;;13.00;9.20;;;14.30;99.90;;;;;;5141139;27;20603;-66
2023/09/01 07:30:44;;;;;;;13.20;9.73;;;14.40;99.90;;;;;;5135809;27;20079;-66
2023/09/01 07:33:10;;;;;;;13.55;9.27;;;14.50;99.90;;;;;;5100436;27;20083;-66
2023/09/01 07:35:36;;;;;;;14.27;9.85;;;14.60;99.90;;;;;;5122548;27;20048;-66
2023/09/01 07:38:03;;;;;;;14.90;9.25;;;14.80;99.90;;;;;;5143093;27;20039;-66
2023/09/01 07:40:32;;;;;;;14.07;9.35;;;14.80;99.90;;;;;;5119728;27;20047;-66
2023/09/01 07:42:59;;;;;;;13.35;9.52;;;14.90;99.90;;;;;;5116793;27;20050;-67
2023/09/01 07:45:26;;;;;;;13.65;9.40;;;15.00;99.90;;;;;;5149498;27;20051;-66
2023/09/01 07:47:52;;;;;;;15.55;10.02;;;15.00;99.90;;;;;;5134812;27;20074;-66
2023/09/01 07:50:18;;;;;;;12.55;9.55;;;15.10;99.90;;;;;;5134265;27;20047;-66
2023/09/01 07:52:44;;;;;;;13.60;9.15;;;15.10;99.90;;;;;;5135125;27;20126;-66
2023/09/01 07:55:10;;;;;;;13.32;9.70;;;15.20;99.90;;;;;;5134986;27;20124;-66
2023/09/01 07:57:35;;;;;;;14.68;9.13;;;15.20;99.90;;;;;;5116332;27;20642;-67
2023/09/01 08:00:05;;;;;;;12.55;8.88;;;15.30;99.90;;;;;;5143300;27;20076;-67
2023/09/01 08:02:31;;;;;;;12.88;8.90;;;15.40;99.90;;;;;;5152693;27;20050;-67
2023/09/01 08:04:56;;;;;;;13.77;10.02;;;15.40;99.90;;;;;;5139845;27;20049;-67
2023/09/01 08:07:22;;;;;;;11.68;8.77;;;15.40;99.90;;;;;;5116534;27;20391;-66
2023/09/01 08:09:48;;;;;;;13.48;9.65;;;15.50;99.90;;;;;;5140514;27;20470;-66
2023/09/01 08:12:13;;;;;;;12.00;9.35;;;15.50;99.90;;;;;;5145701;27;20039;-66
2023/09/01 08:14:39;;;;;;;15.68;10.15;;;15.60;99.90;;;;;;5116577;27;20118;-65
2023/09/01 08:17:05;;;;;;;13.55;9.77;;;15.70;99.90;;;;;;5133581;27;20099;-65
2023/09/01 08:19:30;;;;;;;15.18;11.02;;;15.80;99.90;;;;;;5117028;27;20039;-65
2023/09/01 08:21:57;;;;;;;13.95;10.30;;;15.80;99.90;;;;;;5148364;27;20145;-65
2023/09/01 08:24:23;;;;;;;14.60;9.98;;;15.90;99.90;;;;;;5134019;27;20046;-65
2023/09/01 08:26:49;;;;;;;14.77;10.80;;;16.00;99.90;;;;;;5134140;27;20403;-65
2023/09/01 08:29:14;;;;;;;15.65;10.40;;;16.10;99.90;;;;;;5116218;27;20172;-65
2023/09/01 08:31:41;;;;;;;15.65;9.70;;;16.10;99.90;;;;;;5143726;27;20077;-66
2023/09/01 08:34:10;;;;;;;13.38;10.20;;;16.10;99.90;;;;;;5133604;27;20128;-65
2023/09/01 08:36:37;;;;;;;15.40;10.10;;;16.10;99.90;;;;;;5142294;27;20187;-65
2023/09/01 08:39:03;;;;;;;14.65;9.90;;;16.20;99.90;;;;;;5133789;27;20039;-65
2023/09/01 08:41:29;;;;;;;13.43;10.35;;;16.20;99.90;;;;;;5115650;27;20047;-65
2023/09/01 08:43:59;;;;;;;15.13;9.98;;;16.30;99.90;;;;;;5116137;27;20043;-65
2023/09/01 08:46:28;;;;;;;13.55;9.52;;;16.40;99.90;;;;;;5133572;27;20172;-68
2023/09/01 08:48:54;;;;;;;15.48;10.35;;;16.50;99.90;;;;;;5134059;27;20122;-66
2023/09/01 08:51:21;;;;;;;16.40;11.15;;;16.70;99.90;;;;;;5133455;27;20039;-66
2023/09/01 08:53:48;;;;;;;14.20;10.40;;;16.70;99.90;;;;;;5132960;27;20095;-66
2023/09/01 08:56:14;;;;;;;14.05;10.25;;;16.80;99.90;;;;;;5133214;27;20108;-66
2023/09/01 08:58:41;;;;;;;15.88;10.40;;;16.90;99.90;;;;;;5134008;27;20046;-66
2023/09/01 09:01:07;;;;;;;14.10;10.55;;;17.00;99.90;;;;;;5133843;27;20079;-66
2023/09/01 09:03:33;;;;;;;14.23;10.75;;;17.10;99.90;;;;;;5133419;27;20043;-66
2023/09/01 09:06:02;;;;;;;15.90;11.68;;;17.10;99.90;;;;;;5133315;27;20479;-67
2023/09/01 09:08:28;;;;;;;16.23;11.05;;;17.10;99.90;;;;;;5133984;27;20043;-67
2023/09/01 09:10:54;;;;;;;14.32;10.48;;;17.20;99.90;;;;;;5134487;27;20444;-65
2023/09/01 09:13:30;;;;;;;18.63;13.27;;;17.10;99.90;;;;;;5139279;27;20043;-65
2023/09/01 09:16:15;;;;;;;18.60;12.45;;;17.20;99.90;;;;;;5115325;27;20064;-66
2023/09/01 09:18:42;;;;;;;19.50;12.10;;;17.20;99.90;;;;;;5133214;27;20039;-65
2023/09/01 09:21:31;;;;;;;17.55;11.85;;;17.20;99.90;;;;;;5134283;27;20075;-65
2023/09/01 09:24:02;;;;;;;19.67;11.52;;;17.30;99.90;;;;;;5144096;27;20046;-66
2023/09/01 09:26:29;;;;;;;15.90;11.10;;;17.30;99.90;;;;;;5145805;27;20041;-65
2023/09/01 09:29:06;;;;;;;15.73;11.38;;;17.40;99.90;;;;;;5141963;27;20057;-66
2023/09/01 09:31:44;;;;;;;13.73;10.23;;;17.60;99.90;;;;;;5125033;27;20078;-66
2023/09/01 09:34:15;;;;;;;14.88;9.85;;;17.70;99.90;;;;;;5136097;27;20399;-65
2023/09/01 09:36:41;;;;;;;14.95;10.65;;;17.90;99.90;;;;;;5115684;28;20073;-64
2023/09/01 09:39:24;;;;;;;14.52;10.25;;;18.00;99.90;;;;;;5140521;27;20122;-65
2023/09/01 09:41:49;;;;;;;15.57;11.10;;;18.10;99.90;;;;;;5115194;28;20055;-65
2023/09/01 09:44:31;;;;;;;14.48;9.98;;;18.20;99.90;;;;;;5139706;27;20050;-65
2023/09/01 09:46:57;;;;;;;15.02;10.40;;;18.30;99.90;;;;;;5114755;28;20400;-65
2023/09/01 09:49:24;;;;;;;14.50;10.15;;;18.20;99.90;;;;;;5115295;27;20043;-65
2023/09/01 09:51:51;;;;;;;14.70;9.85;;;18.20;99.90;;;;;;5114858;28;20039;-66
2023/09/01 09:54:20;;;;;;;13.65;9.35;;;18.20;99.90;;;;;;5132946;27;20054;-66
2023/09/01 09:56:51;;;;;;;14.00;8.68;;;18.20;99.90;;;;;;5133488;27;20096;-65
2023/09/01 09:59:48;;;;;;;14.50;8.90;;;18.20;99.90;;;;;;5133386;27;20051;-66
2023/09/01 10:02:27;;;;;;;13.52;8.88;;;18.10;99.90;;;;;;5132090;27;20043;-66
2023/09/01 10:04:54;;;;;;;13.05;9.35;;;18.00;99.90;;;;;;5133399;27;20032;-65
2023/09/01 10:07:22;;;;;;;13.00;8.88;;;18.10;99.90;;;;;;5144215;27;20035;-66
2023/09/01 10:09:48;;;;;;;13.93;8.77;;;18.10;99.90;;;;;;5132929;27;20050;-65
2023/09/01 10:12:15;;;;;;;11.93;8.43;;;18.20;99.90;;;;;;5135799;27;20118;-65
2023/09/01 10:14:43;;;;;;;15.50;8.18;;;18.20;99.90;;;;;;5132614;27;20050;-65
2023/09/01 10:17:12;;;;;;;12.10;7.78;;;18.20;99.90;;;;;;5132092;27;20399;-66
2023/09/01 10:19:37;;;;;;;9.02;6.63;;;18.20;99.90;;;;;;5132691;27;20122;-66
2023/09/01 10:22:03;;;;;;;8.85;6.88;;;18.10;99.90;;;;;;5132940;27;20127;-66
2023/09/01 10:24:29;;;;;;;15.18;7.70;;;18.10;99.90;;;;;;5136929;27;20049;-66
2023/09/01 10:27:08;;;;;;;8.40;5.93;;;18.10;99.90;;;;;;5133165;27;20039;-65
2023/09/01 10:29:34;;;;;;;8.90;6.22;;;18.10;99.90;;;;;;5133089;27;20047;-66
2023/09/01 10:32:17;;;;;;;11.52;6.88;;;18.20;99.90;;;;;;5145751;27;20502;-67
2023/09/01 10:34:54;;;;;;;11.52;6.35;;;18.20;99.90;;;;;;5115393;27;20051;-66
2023/09/01 10:37:25;;;;;;;8.95;5.78;;;18.20;99.90;;;;;;5134295;27;20039;-66
2023/09/01 10:39:50;;;;;;;11.27;6.72;;;18.30;99.90;;;;;;5141565;27;20403;-67
2023/09/01 10:42:16;;;;;;;10.52;6.53;;;18.30;99.90;;;;;;5136094;27;20036;-66
2023/09/01 10:44:44;;;;;;;11.48;6.00;;;18.40;99.90;;;;;;5146653;27;20471;-67
2023/09/01 10:47:32;;;;;;;10.18;6.25;;;18.50;99.90;;;;;;5115636;27;20547;-67
2023/09/01 10:50:02;;;;;;;8.15;5.65;;;18.50;99.90;;;;;;5116415;27;20043;-67
2023/09/01 10:52:29;;;;;;;10.82;6.15;;;18.40;99.90;;;;;;5115868;28;20075;-66
2023/09/01 10:55:03;;;;;;;23.73;6.00;;;18.30;99.90;;;;;;5115429;27;20047;-67
2023/09/01 10:57:43;;;;;;;8.93;4.93;;;18.30;99.90;;;;;;5115686;27;20056;-67
2023/09/01 11:00:31;;;;;;;11.23;5.65;;;18.20;99.90;;;;;;5114640;27;20544;-67
2023/09/01 11:03:32;;;;;;;10.98;5.85;;;18.20;99.90;;;;;;5115621;27;20119;-67
2023/09/01 11:06:01;;;;;;;9.98;5.43;;;18.10;99.90;;;;;;5115511;27;20098;-67
2023/09/01 11:08:27;;;;;;;8.43;5.65;;;18.10;99.90;;;;;;5114571;28;20039;-66
2023/09/01 11:10:55;;;;;;;10.35;5.97;;;18.10;99.90;;;;;;5115792;27;20040;-66
2023/09/01 11:13:25;;;;;;;9.93;5.80;;;18.00;99.90;;;;;;5114498;28;20040;-67
2023/09/01 11:15:51;;;;;;;8.70;5.50;;;18.10;99.90;;;;;;5115402;27;20076;-66
2023/09/01 11:18:22;;;;;;;7.90;5.20;;;18.00;99.90;;;;;;5114983;27;20049;-64
2023/09/01 11:20:49;;;;;;;10.75;5.38;;;18.00;99.90;;;;;;5116921;27;20039;-65
2023/09/01 11:23:22;;;;;;;9.15;5.50;;;18.00;99.90;;;;;;5115384;27;20044;-65
2023/09/01 11:25:56;;;;;;;9.77;5.32;;;18.00;99.90;;;;;;5115901;27;20411;-65
2023/09/01 11:28:22;;;;;;;8.05;5.15;;;18.00;99.90;;;;;;5115491;28;20047;-64
2023/09/01 11:30:52;;;;;;;9.27;5.43;;;18.00;99.90;;;;;;5116161;27;20046;-65
2023/09/01 11:33:20;;;;;;;10.25;5.72;;;18.10;99.90;;;;;;5115332;27;20032;-65
2023/09/01 11:35:46;;;;;;;8.57;5.55;;;18.00;99.90;;;;;;5114925;27;20044;-66
2023/09/01 11:38:19;;;;;;;7.75;5.18;;;18.10;99.90;;;;;;5123092;27;20501;-65
2023/09/01 11:40:47;;;;;;;6.25;4.70;;;18.10;99.90;;;;;;5119467;27;20044;-65
2023/09/01 11:43:13;;;;;;;7.53;4.80;;;18.10;99.90;;;;;;5114844;27;20035;-65
2023/09/01 11:45:48;;;;;;;10.32;5.18;;;18.00;99.90;;;;;;5135037;27;20050;-66
2023/09/01 11:48:24;;;;;;;7.88;4.68;;;18.00;99.90;;;;;;5134744;27;20053;-65
2023/09/01 11:50:53;;;;;;;8.07;5.07;;;18.00;99.90;;;;;;5135340;27;20372;-66
2023/09/01 11:53:32;;;;;;;7.20;4.78;;;18.00;99.90;;;;;;5134730;27;20042;-65
2023/09/01 11:56:00;;;;;;;6.93;4.28;;;18.10;99.90;;;;;;5135135;27;20054;-66
2023/09/01 11:58:52;;;;;;;6.82;4.55;;;18.10;99.90;;;;;;5134740;27;20053;-65
2023/09/01 12:01:23;;;;;;;7.55;4.70;;;18.10;99.90;;;;;;5134745;27;20049;-65
2023/09/01 12:03:53;;;;;;;10.15;5.10;;;18.10;99.90;;;;;;5135342;27;20042;-66
2023/09/01 12:06:20;;;;;;;8.52;4.70;;;18.10;99.90;;;;;;5134538;27;20042;-66
2023/09/01 12:08:46;;;;;;;9.52;4.35;;;18.10;99.90;;;;;;5134644;27;20050;-66
2023/09/01 12:11:13;;;;;;;7.28;4.80;;;18.10;99.90;;;;;;5138337;27;20103;-66
2023/09/01 12:13:39;;;;;;;8.15;4.57;;;18.10;99.90;;;;;;5143721;27;20096;-65
2023/09/01 12:16:05;;;;;;;7.47;4.78;;;18.20;99.90;;;;;;5134203;27;20121;-65
2023/09/01 12:18:35;;;;;;;8.38;4.97;;;18.20;99.90;;;;;;5134061;27;20150;-65
2023/09/01 12:21:06;;;;;;;8.73;4.63;;;18.40;99.90;;;;;;5116587;27;20039;-65
2023/09/01 12:23:41;;;;;;;6.47;4.25;;;18.50;99.90;;;;;;5117003;27;20042;-65
2023/09/01 12:26:07;;;;;;;8.75;4.30;;;18.70;99.90;;;;;;5134265;27;20398;-65
2023/09/01 12:28:36;;;;;;;7.45;4.53;;;18.90;99.90;;;;;;5134304;27;20046;-65
2023/09/01 12:31:03;;;;;;;7.05;4.50;;;19.00;99.90;;;;;;5139174;27;20043;-65
2023/09/01 12:33:29;;;;;;;7.22;4.00;;;19.00;99.90;;;;;;5145881;27;20368;-66
2023/09/01 12:35:55;;;;;;;8.70;4.45;;;18.90;99.90;;;;;;5142946;27;20099;-66
2023/09/01 12:38:21;;;;;;;7.55;4.03;;;18.90;99.90;;;;;;5139498;27;20054;-65
2023/09/01 12:40:47;;;;;;;7.13;4.50;;;18.90;99.90;;;;;;5134109;27;20039;-64
2023/09/01 12:43:14;;;;;;;5.97;3.97;;;19.00;99.90;;;;;;5134787;27;20039;-65
2023/09/01 12:45:40;;;;;;;7.25;4.47;;;19.00;99.90;;;;;;5143409;27;20058;-65